Terminal Aerodrome Forecast
Issued by NWS Goodland, KS

Home | Current Version | Previous Version | Text Only | Print | Product List | Glossary On
Versions: 1 2 3 4 5 6 7 8 9 10 11 12 13 14
000
FTUS43 KGLD 201728
TAFGLD
TAF
KGLD 201728Z 2018/2118 VRB05KT P6SM SCT200
     FM202100 30005KT P6SM FEW080 BKN200
     FM210000 27005KT P6SM BKN070
     FM211500 24005KT P6SM SKC=

USA.gov is the U.S. government's official web portal to all federal, state and local government web resources and services.